createdAt,value
2024-03-26T00:00:18.187Z,47501.08
2024-03-26T00:03:06.414Z,47503.48
2024-03-26T00:05:34.349Z,47492.69
2024-03-26T00:08:02.214Z,47494.68
2024-03-26T00:10:30.134Z,47488.69
2024-03-26T00:12:58.060Z,47479.50
2024-03-26T00:15:25.943Z,47483.50
2024-03-26T00:17:53.979Z,47477.10
2024-03-26T00:20:21.986Z,47469.51
2024-03-26T00:22:49.887Z,47473.11
2024-03-26T00:25:17.834Z,47469.51
2024-03-26T00:27:45.789Z,47465.51
2024-03-26T00:30:13.764Z,47470.71
2024-03-26T00:32:42.291Z,47468.31
2024-03-26T00:35:10.195Z,47472.30
2024-03-26T00:37:38.606Z,47474.30
2024-03-26T00:40:06.818Z,47482.70
2024-03-26T00:42:34.891Z,47490.29
2024-03-26T00:45:04.262Z,47491.49
2024-03-26T00:47:33.526Z,47495.88
2024-03-26T00:50:01.531Z,47497.48
2024-03-26T00:52:29.581Z,47495.88
2024-03-26T00:54:57.658Z,47503.88
2024-03-26T00:57:25.565Z,47513.87
2024-03-26T00:59:53.492Z,47516.26
2024-03-26T01:02:21.423Z,47521.86
2024-03-26T01:04:49.323Z,47528.65
2024-03-26T01:07:18.659Z,47535.45
2024-03-26T01:09:48.261Z,47551.83
2024-03-26T01:12:16.220Z,47571.41
2024-03-26T01:14:44.103Z,47582.99
2024-03-26T01:17:12.041Z,47599.77
2024-03-26T01:19:41.260Z,47614.16
2024-03-26T01:22:09.221Z,47641.74
2024-03-26T01:24:37.144Z,47675.70
2024-03-26T01:27:05.174Z,47682.89
2024-03-26T01:29:33.142Z,47703.27
2024-03-26T01:32:02.525Z,47699.68
2024-03-26T01:34:30.471Z,47720.86
2024-03-26T01:36:58.475Z,47744.43
2024-03-26T01:39:26.353Z,47743.24
2024-03-26T01:41:54.306Z,47749.23
2024-03-26T01:44:22.275Z,47770.01
2024-03-26T01:46:50.354Z,47778.40
2024-03-26T01:49:19.287Z,47760.02
2024-03-26T01:51:47.443Z,47772.41
2024-03-26T01:54:16.175Z,47760.02
2024-03-26T01:56:45.228Z,47760.42
2024-03-26T01:59:13.804Z,47753.23
2024-03-26T02:01:41.765Z,47758.43
2024-03-26T02:04:09.734Z,47758.82
2024-03-26T02:06:37.686Z,47762.82
2024-03-26T02:09:05.591Z,47780.80
2024-03-26T02:11:33.485Z,47782.00
2024-03-26T02:14:01.489Z,47780.80
2024-03-26T02:16:29.462Z,47766.81
2024-03-26T02:18:57.359Z,47770.41
2024-03-26T02:21:25.968Z,47758.02
2024-03-26T02:23:53.902Z,47776.00
2024-03-26T02:26:21.849Z,47763.62
2024-03-26T02:28:49.737Z,47766.41
2024-03-26T02:31:17.658Z,47789.20
2024-03-26T02:33:45.607Z,47799.58
2024-03-26T02:36:13.506Z,47803.98
2024-03-26T02:38:41.472Z,47806.38
2024-03-26T02:41:09.476Z,47799.98
2024-03-26T02:43:37.797Z,47793.19
2024-03-26T02:46:05.774Z,47783.20
2024-03-26T02:48:33.795Z,47756.42
2024-03-26T02:51:01.692Z,47757.62
2024-03-26T02:53:29.696Z,47748.03
2024-03-26T02:55:57.700Z,47760.42
2024-03-26T02:58:25.577Z,47752.83
2024-03-26T03:00:53.648Z,47764.41
2024-03-26T03:03:21.462Z,47764.02
2024-03-26T03:05:49.466Z,47762.02
2024-03-26T03:08:17.430Z,47749.63
2024-03-26T03:10:45.331Z,47754.02
2024-03-26T03:13:13.250Z,47733.25
2024-03-26T03:15:41.199Z,47747.23
2024-03-26T03:18:09.193Z,47736.84
2024-03-26T03:20:37.192Z,47722.86
2024-03-26T03:23:05.224Z,47705.67
2024-03-26T03:25:33.155Z,47716.86
2024-03-26T03:28:01.125Z,47706.07
2024-03-26T03:30:29.165Z,47720.06
2024-03-26T03:32:57.905Z,47714.06
2024-03-26T03:35:25.871Z,47695.68
2024-03-26T03:37:53.828Z,47713.66
2024-03-26T03:40:21.728Z,47714.46
2024-03-26T03:42:50.135Z,47713.66
2024-03-26T03:45:18.111Z,47713.26
2024-03-26T03:47:46.041Z,47708.47
2024-03-26T03:50:14.124Z,47707.27
2024-03-26T03:52:42.214Z,47710.47
2024-03-26T03:55:10.078Z,47713.66
2024-03-26T03:57:39.232Z,47724.46
2024-03-26T04:00:08.276Z,47714.87
2024-03-26T04:02:42.176Z,47715.26
2024-03-26T04:05:10.798Z,47734.45
2024-03-26T04:07:38.808Z,47759.62
2024-03-26T04:10:07.841Z,47769.21
2024-03-26T04:12:35.741Z,47811.17
2024-03-26T04:15:04.029Z,47829.95
2024-03-26T04:17:32.059Z,47845.94
2024-03-26T04:20:00.036Z,47849.53
2024-03-26T04:22:28.145Z,47857.93
2024-03-26T04:24:56.113Z,47843.14
2024-03-26T04:27:24.233Z,47827.16
2024-03-26T04:29:52.587Z,47834.35
2024-03-26T04:32:20.649Z,47817.96
2024-03-26T04:34:48.582Z,47807.57
2024-03-26T04:37:16.527Z,47786.40
2024-03-26T04:39:44.843Z,47775.21
2024-03-26T04:42:12.860Z,47750.03
2024-03-26T04:44:40.795Z,47751.63
2024-03-26T04:47:08.841Z,47734.84
2024-03-26T04:49:37.004Z,47730.05
2024-03-26T04:52:05.006Z,47716.46
2024-03-26T04:54:32.984Z,47718.06
2024-03-26T04:57:00.993Z,47736.45
2024-03-26T04:59:28.961Z,47720.46
2024-03-26T05:01:56.964Z,47739.64
2024-03-26T05:04:24.829Z,47742.84
2024-03-26T05:06:52.767Z,47766.41
2024-03-26T05:09:20.711Z,47772.41
2024-03-26T05:11:48.676Z,47767.21
2024-03-26T05:14:16.603Z,47797.18
2024-03-26T05:16:44.571Z,47816.36
2024-03-26T05:19:12.950Z,47803.57
2024-03-26T05:21:40.921Z,47817.96
2024-03-26T05:24:08.911Z,47808.37
2024-03-26T05:26:36.864Z,47819.16
2024-03-26T05:29:04.776Z,47828.35
2024-03-26T05:31:32.787Z,47847.14
2024-03-26T05:34:00.922Z,47871.11
2024-03-26T05:36:29.697Z,47881.11
2024-03-26T05:38:57.756Z,47847.54
2024-03-26T05:41:25.663Z,47859.53
2024-03-26T05:43:54.702Z,47870.32
2024-03-26T05:46:23.280Z,47880.71
2024-03-26T05:48:51.301Z,47933.85
2024-03-26T05:51:20.056Z,48012.98
2024-03-26T05:53:48.241Z,48106.90
2024-03-26T05:56:16.227Z,48154.46
2024-03-26T05:58:44.308Z,48181.64
2024-03-26T06:01:12.616Z,48313.93
2024-03-26T06:03:40.557Z,48383.47
2024-03-26T06:06:08.958Z,48545.74
2024-03-26T06:08:37.137Z,48728.00
2024-03-26T06:11:05.051Z,48827.14
2024-03-26T06:13:33.281Z,48873.50
2024-03-26T06:16:08.576Z,48889.49
2024-03-26T06:18:37.140Z,48883.90
2024-03-26T06:21:08.525Z,48892.29
2024-03-26T06:23:36.548Z,48872.70
2024-03-26T06:26:04.787Z,48853.52
2024-03-26T06:28:32.682Z,48853.52
2024-03-26T06:31:00.784Z,48851.12
2024-03-26T06:33:29.496Z,48843.52
2024-03-26T06:35:57.703Z,48837.93
2024-03-26T06:38:25.666Z,48830.73
2024-03-26T06:40:56.959Z,48835.93
2024-03-26T06:43:27.742Z,48841.13
2024-03-26T06:45:55.756Z,48830.73
2024-03-26T06:48:24.019Z,48804.75
2024-03-26T06:50:52.437Z,48813.15
2024-03-26T06:53:20.431Z,48806.35
2024-03-26T06:55:48.493Z,48794.76
2024-03-26T06:58:17.616Z,48796.76
2024-03-26T07:00:45.847Z,48787.56
2024-03-26T07:03:15.079Z,48791.16
2024-03-26T07:05:43.692Z,48780.77
2024-03-26T07:08:11.800Z,48782.77
2024-03-26T07:10:39.740Z,48773.17
2024-03-26T07:13:08.560Z,48763.58
2024-03-26T07:15:36.561Z,48636.87
2024-03-26T07:18:05.370Z,48610.49
2024-03-26T07:20:33.324Z,48603.70
2024-03-26T07:23:01.413Z,48584.91
2024-03-26T07:25:29.379Z,48590.91
2024-03-26T07:27:57.365Z,48577.31
2024-03-26T07:30:25.267Z,48576.92
2024-03-26T07:32:53.353Z,48570.12
2024-03-26T07:35:21.305Z,48563.73
2024-03-26T07:37:49.824Z,48554.53
2024-03-26T07:40:17.732Z,48557.33
2024-03-26T07:42:46.146Z,48556.93
2024-03-26T07:45:15.748Z,48540.55
2024-03-26T07:47:43.848Z,48550.54
2024-03-26T07:50:11.959Z,48542.14
2024-03-26T07:52:40.529Z,48542.14
2024-03-26T07:55:09.011Z,48554.54
2024-03-26T07:57:38.843Z,48543.74
2024-03-26T08:00:11.581Z,48536.55
2024-03-26T08:02:39.804Z,48533.75
2024-03-26T08:05:08.388Z,48530.55
2024-03-26T08:07:36.382Z,48531.75
2024-03-26T08:10:04.666Z,48534.55
2024-03-26T08:12:32.746Z,48526.16
2024-03-26T08:15:01.313Z,48528.16
2024-03-26T08:17:30.085Z,48526.56
2024-03-26T08:19:58.215Z,48522.16
2024-03-26T08:22:26.328Z,48524.96
2024-03-26T08:25:01.795Z,48518.16
2024-03-26T08:27:29.784Z,48512.56
2024-03-26T08:29:57.851Z,48517.36
2024-03-26T08:32:26.048Z,48516.56
2024-03-26T08:34:54.113Z,48516.56
2024-03-26T08:37:22.067Z,48508.17
2024-03-26T08:39:50.336Z,48508.97
2024-03-26T08:42:18.246Z,48508.17
2024-03-26T08:44:46.290Z,48508.17
2024-03-26T08:47:14.588Z,48514.56
2024-03-26T08:49:42.627Z,48505.77
2024-03-26T08:52:10.567Z,48502.18
2024-03-26T08:54:38.677Z,48499.38
2024-03-26T08:57:10.520Z,48494.58
2024-03-26T08:59:39.578Z,48494.98
2024-03-26T09:02:08.419Z,48498.98
2024-03-26T09:04:37.290Z,48496.18
2024-03-26T09:07:05.363Z,48491.38
2024-03-26T09:09:33.348Z,48490.18
2024-03-26T09:12:01.367Z,48491.38
2024-03-26T09:14:29.386Z,48490.59
2024-03-26T09:16:57.369Z,48484.99
2024-03-26T09:19:25.461Z,48478.59
2024-03-26T09:21:53.472Z,48488.59
2024-03-26T09:24:22.825Z,48480.99
2024-03-26T09:26:52.958Z,48480.99
2024-03-26T09:29:21.560Z,48477.00
2024-03-26T09:31:49.515Z,48483.39
2024-03-26T09:34:17.556Z,48476.99
2024-03-26T09:36:45.505Z,48476.59
2024-03-26T09:39:13.767Z,48476.20
2024-03-26T09:41:42.952Z,48473.40
2024-03-26T09:44:11.883Z,48478.20
2024-03-26T09:46:49.205Z,48467.80
2024-03-26T09:49:18.411Z,48469.40
2024-03-26T09:51:47.824Z,48472.60
2024-03-26T09:54:16.634Z,48456.21
2024-03-26T09:56:44.595Z,48455.01
2024-03-26T09:59:14.052Z,48456.21
2024-03-26T10:01:43.454Z,48451.81
2024-03-26T10:04:11.519Z,48454.61
2024-03-26T10:06:40.834Z,48447.82
2024-03-26T10:09:09.725Z,48447.82
2024-03-26T10:11:40.009Z,48449.02
2024-03-26T10:14:10.257Z,48449.41
2024-03-26T10:16:42.162Z,48447.42
2024-03-26T10:19:10.844Z,48446.21
2024-03-26T10:21:45.779Z,48457.41
2024-03-26T10:24:13.991Z,48457.41
2024-03-26T10:26:42.552Z,48445.82
2024-03-26T10:29:11.658Z,48447.02
2024-03-26T10:31:43.682Z,48442.63
2024-03-26T10:34:14.251Z,48448.62
2024-03-26T10:36:43.646Z,48448.21
2024-03-26T10:39:15.793Z,48449.82
2024-03-26T10:41:45.796Z,48446.62
2024-03-26T10:44:14.024Z,48436.23
2024-03-26T10:46:42.133Z,48442.22
2024-03-26T10:49:12.009Z,48436.63
2024-03-26T10:51:40.960Z,48429.03
2024-03-26T10:54:09.140Z,48436.23
2024-03-26T10:56:37.182Z,48441.82
2024-03-26T10:59:05.285Z,48433.03
2024-03-26T11:01:35.220Z,48430.63
2024-03-26T11:04:03.364Z,48437.83
2024-03-26T11:06:31.508Z,48439.02
2024-03-26T11:09:23.563Z,48431.83
2024-03-26T11:11:51.844Z,48429.43
2024-03-26T11:14:21.175Z,48431.83
2024-03-26T11:16:51.681Z,48419.04
2024-03-26T11:19:25.611Z,48434.63
2024-03-26T11:21:56.968Z,48418.64
2024-03-26T11:24:26.637Z,48420.64
2024-03-26T11:26:57.213Z,48429.03
2024-03-26T11:29:25.960Z,48421.44
2024-03-26T11:31:54.026Z,48427.83
2024-03-26T11:34:22.287Z,48421.04
2024-03-26T11:36:52.667Z,48419.44
2024-03-26T11:39:22.832Z,48425.84
2024-03-26T11:41:51.868Z,48434.23
2024-03-26T11:44:19.982Z,48423.04
2024-03-26T11:46:48.861Z,48419.04
2024-03-26T11:49:16.793Z,48415.45
2024-03-26T11:51:45.696Z,48417.84
2024-03-26T11:54:13.653Z,48415.45
2024-03-26T11:56:42.631Z,48422.64
2024-03-26T11:59:10.580Z,48416.64
2024-03-26T12:01:38.547Z,48421.44
2024-03-26T12:04:07.263Z,48411.04
2024-03-26T12:06:37.871Z,48408.25
2024-03-26T12:09:06.062Z,48406.25
2024-03-26T12:11:34.195Z,48408.25
2024-03-26T12:14:03.528Z,48398.66
2024-03-26T12:16:31.715Z,48397.06
2024-03-26T12:18:59.702Z,48397.05
2024-03-26T12:21:27.678Z,48395.86
2024-03-26T12:23:57.509Z,48390.66
2024-03-26T12:26:25.548Z,48384.67
2024-03-26T12:28:53.535Z,48391.86
2024-03-26T12:31:25.320Z,48389.46
2024-03-26T12:33:59.083Z,48390.66
2024-03-26T12:36:27.110Z,48393.46
2024-03-26T12:38:55.708Z,48388.26
2024-03-26T12:41:23.854Z,48387.46
2024-03-26T12:43:53.674Z,48390.66
2024-03-26T12:46:21.656Z,48391.86
2024-03-26T12:48:53.746Z,48389.86
2024-03-26T12:51:22.407Z,48385.87
2024-03-26T12:53:51.149Z,48379.07
2024-03-26T12:56:20.100Z,48383.87
2024-03-26T12:58:48.792Z,48382.27
2024-03-26T13:01:16.770Z,48390.66
2024-03-26T13:03:44.845Z,48380.27
2024-03-26T13:06:12.982Z,48393.46
2024-03-26T13:08:42.063Z,48388.66
2024-03-26T13:11:14.628Z,48390.26
2024-03-26T13:13:44.731Z,48390.66
2024-03-26T13:16:17.440Z,48387.87
2024-03-26T13:18:46.180Z,48387.86
2024-03-26T13:21:14.420Z,48393.46
2024-03-26T13:23:43.588Z,48389.07
2024-03-26T13:26:12.755Z,48395.46
2024-03-26T13:28:41.394Z,48398.66
2024-03-26T13:31:09.901Z,48393.06
2024-03-26T13:33:37.813Z,48400.26
2024-03-26T13:36:06.260Z,48408.25
2024-03-26T13:38:34.507Z,48400.25
2024-03-26T13:41:03.430Z,48396.66
2024-03-26T13:43:31.438Z,48398.66
2024-03-26T13:45:59.542Z,48400.65
2024-03-26T13:48:27.552Z,48394.66
2024-03-26T13:50:55.782Z,48399.05
2024-03-26T13:53:24.633Z,48394.26
2024-03-26T13:55:52.605Z,48393.86
2024-03-26T13:58:20.662Z,48393.86
2024-03-26T14:00:48.920Z,48390.26
2024-03-26T14:03:17.014Z,48387.87
2024-03-26T14:05:45.297Z,48398.66
2024-03-26T14:08:13.298Z,48407.05
2024-03-26T14:10:41.243Z,48412.25
2024-03-26T14:13:09.251Z,48415.84
2024-03-26T14:15:37.466Z,48431.43
2024-03-26T14:18:05.517Z,48423.43
2024-03-26T14:20:33.532Z,48429.43
2024-03-26T14:23:01.600Z,48437.02
2024-03-26T14:25:30.602Z,48423.84
2024-03-26T14:27:58.762Z,48434.23
2024-03-26T14:30:26.713Z,48434.63
2024-03-26T14:32:55.805Z,48425.44
2024-03-26T14:35:25.194Z,48437.02
2024-03-26T14:37:56.556Z,48439.82
2024-03-26T14:40:24.647Z,48431.03
2024-03-26T14:42:52.710Z,48443.42
2024-03-26T14:45:20.739Z,48440.63
2024-03-26T14:47:49.702Z,48438.23
2024-03-26T14:50:19.936Z,48450.62
2024-03-26T14:52:48.135Z,48451.01
2024-03-26T14:55:16.166Z,48449.02
2024-03-26T14:57:44.237Z,48446.62
2024-03-26T15:00:12.436Z,48441.42
2024-03-26T15:02:40.390Z,48452.21
2024-03-26T15:05:09.472Z,48448.21
2024-03-26T15:07:38.378Z,48448.21
2024-03-26T15:10:06.646Z,48453.81
2024-03-26T15:12:34.787Z,48456.21
2024-03-26T15:15:03.662Z,48447.82
2024-03-26T15:17:32.399Z,48453.01
2024-03-26T15:20:00.643Z,48454.61
2024-03-26T15:22:28.951Z,48463.80
2024-03-26T15:24:59.479Z,48453.41
2024-03-26T15:27:29.646Z,48452.61
2024-03-26T15:30:34.040Z,48466.20
2024-03-26T15:33:26.936Z,48465.80
2024-03-26T15:35:56.237Z,48463.40
2024-03-26T15:38:25.096Z,48468.60
2024-03-26T15:40:53.125Z,48469.40
2024-03-26T15:43:23.670Z,48464.61
2024-03-26T15:45:51.796Z,48478.59
2024-03-26T15:48:19.935Z,48475.80
2024-03-26T15:50:48.317Z,48484.99
2024-03-26T15:53:16.332Z,48473.80
2024-03-26T15:55:44.250Z,48480.59
2024-03-26T15:58:15.402Z,48485.39
2024-03-26T16:00:43.415Z,48488.58
2024-03-26T16:03:11.966Z,48488.59
2024-03-26T16:05:41.178Z,48494.58
2024-03-26T16:08:09.103Z,48490.58
2024-03-26T16:10:53.029Z,48494.98
2024-03-26T16:13:25.357Z,48492.98
2024-03-26T16:15:55.094Z,48505.77
2024-03-26T16:18:24.174Z,48501.77
2024-03-26T16:20:52.417Z,48508.57
2024-03-26T16:23:21.962Z,48505.37
2024-03-26T16:25:50.050Z,48511.37
2024-03-26T16:28:18.019Z,48512.96
2024-03-26T16:30:47.627Z,48513.36
2024-03-26T16:33:15.870Z,48520.56
2024-03-26T16:35:44.370Z,48522.16
2024-03-26T16:38:15.674Z,48517.37
2024-03-26T16:40:43.693Z,48523.76
2024-03-26T16:43:12.211Z,48522.56
2024-03-26T16:45:40.366Z,48523.36
2024-03-26T16:48:09.711Z,48532.15
2024-03-26T16:50:37.689Z,48533.75
2024-03-26T16:53:06.050Z,48530.95
2024-03-26T16:55:34.437Z,48537.74
2024-03-26T16:58:04.692Z,48524.96
2024-03-26T17:00:34.384Z,48534.15
2024-03-26T17:03:02.327Z,48526.55
2024-03-26T17:05:30.694Z,48533.75
2024-03-26T17:08:02.497Z,48539.74
2024-03-26T17:10:30.608Z,48536.55
2024-03-26T17:12:59.819Z,48533.35
2024-03-26T17:15:27.877Z,48532.95
2024-03-26T17:17:56.264Z,48529.76
2024-03-26T17:20:24.312Z,48537.75
2024-03-26T17:22:52.892Z,48540.55
2024-03-26T17:25:23.177Z,48539.34
2024-03-26T17:27:52.886Z,48536.15
2024-03-26T17:30:20.934Z,48540.14
2024-03-26T17:32:48.937Z,48530.95
2024-03-26T17:35:17.768Z,48541.35
2024-03-26T17:37:48.938Z,48538.95
2024-03-26T17:40:17.419Z,48552.13
2024-03-26T17:42:46.254Z,48542.14
2024-03-26T17:45:15.413Z,48546.54
2024-03-26T17:47:44.268Z,48552.14
2024-03-26T17:50:12.279Z,48552.14
2024-03-26T17:52:42.231Z,48552.54
2024-03-26T17:55:14.005Z,48551.74
2024-03-26T17:57:42.320Z,48543.34
2024-03-26T18:00:11.564Z,48556.13
2024-03-26T18:02:39.533Z,48541.74
2024-03-26T18:05:08.510Z,48544.94
2024-03-26T18:07:37.130Z,48552.14
2024-03-26T18:10:08.365Z,48556.53
2024-03-26T18:12:36.446Z,48543.34
2024-03-26T18:15:04.978Z,48550.93
2024-03-26T18:17:33.005Z,48552.94
2024-03-26T18:20:00.938Z,48557.33
2024-03-26T18:22:29.259Z,48558.13
2024-03-26T18:24:57.931Z,48555.73
2024-03-26T18:27:26.368Z,48555.34
2024-03-26T18:29:55.722Z,48555.73
2024-03-26T18:32:23.834Z,48556.53
2024-03-26T18:34:55.083Z,48557.33
2024-03-26T18:37:23.087Z,48538.54
2024-03-26T18:39:51.186Z,48554.93
2024-03-26T18:42:19.265Z,48549.73
2024-03-26T18:44:47.821Z,48572.92
2024-03-26T18:47:15.758Z,48553.34
2024-03-26T18:49:43.701Z,48554.93
2024-03-26T18:52:11.592Z,48556.13
2024-03-26T18:54:40.472Z,48566.13
2024-03-26T18:57:12.063Z,48565.32
2024-03-26T18:59:39.870Z,48566.52
2024-03-26T19:02:08.352Z,48566.13
2024-03-26T19:04:36.333Z,48562.13
2024-03-26T19:07:05.736Z,48563.33
2024-03-26T19:09:36.290Z,48567.72
2024-03-26T19:12:04.476Z,48574.92
2024-03-26T19:14:33.153Z,48567.32
2024-03-26T19:17:01.177Z,48570.52
2024-03-26T19:19:29.121Z,48576.92
2024-03-26T19:21:57.090Z,48571.32
2024-03-26T19:24:25.227Z,48581.71
2024-03-26T19:26:53.179Z,48576.52
2024-03-26T19:29:21.178Z,48575.72
2024-03-26T19:31:49.049Z,48575.32
2024-03-26T19:34:16.992Z,48584.11
2024-03-26T19:36:44.896Z,48580.91
2024-03-26T19:39:13.830Z,48586.11
2024-03-26T19:41:41.967Z,48577.72
2024-03-26T19:44:10.194Z,48586.11
2024-03-26T19:46:38.138Z,48584.11
2024-03-26T19:49:06.129Z,48585.71
2024-03-26T19:51:33.996Z,48590.50
2024-03-26T19:54:01.951Z,48591.30
2024-03-26T19:56:30.151Z,48589.71
2024-03-26T19:58:58.207Z,48610.49
2024-03-26T20:01:26.669Z,48601.70
2024-03-26T20:03:54.729Z,48388.66
2024-03-26T20:06:24.395Z,48270.37
2024-03-26T20:08:52.409Z,48157.66
2024-03-26T20:11:20.992Z,48244.79
2024-03-26T20:13:49.632Z,48391.86
2024-03-26T20:16:21.114Z,48563.32
2024-03-26T20:18:49.547Z,47865.12
2024-03-26T20:21:17.917Z,48222.80
2024-03-26T20:23:46.596Z,48478.99
2024-03-26T20:26:15.638Z,48112.91
2024-03-26T20:28:43.676Z,47636.54
2024-03-26T20:31:14.555Z,47584.20
2024-03-26T20:33:42.544Z,47513.06
2024-03-26T20:36:16.576Z,47540.63
2024-03-26T20:38:45.262Z,47502.27
2024-03-26T20:41:13.274Z,47519.86
2024-03-26T20:43:41.353Z,47482.29
2024-03-26T20:46:10.193Z,47528.65
2024-03-26T20:48:38.302Z,47605.77
2024-03-26T20:51:13.715Z,47592.98
2024-03-26T20:53:41.778Z,47509.87
2024-03-26T20:56:09.912Z,47496.68
2024-03-26T20:58:38.316Z,47477.90
2024-03-26T21:01:06.436Z,47527.85
2024-03-26T21:03:36.766Z,47493.88
2024-03-26T21:06:06.365Z,47514.27
2024-03-26T21:08:35.465Z,47479.10
2024-03-26T21:11:12.023Z,47487.49
2024-03-26T21:13:41.410Z,47513.07
2024-03-26T21:16:12.269Z,47533.45
2024-03-26T21:18:48.858Z,47551.02
2024-03-26T21:21:18.696Z,47573.01
2024-03-26T21:23:48.705Z,47558.22
2024-03-26T21:26:18.875Z,47547.43
2024-03-26T21:28:47.466Z,47610.57
2024-03-26T21:31:15.730Z,47607.37
2024-03-26T21:33:43.965Z,47607.77
2024-03-26T21:36:12.639Z,47599.78
2024-03-26T21:38:40.610Z,47558.21
2024-03-26T21:41:08.948Z,47531.05
2024-03-26T21:43:36.952Z,47511.87
2024-03-26T21:46:05.236Z,47548.63
2024-03-26T21:48:33.263Z,47574.60
2024-03-26T21:51:02.528Z,47571.01
2024-03-26T21:53:30.474Z,47531.45
2024-03-26T21:56:04.498Z,47533.04
2024-03-26T21:58:32.561Z,47501.08
2024-03-26T22:01:04.324Z,47496.28
2024-03-26T22:03:32.364Z,47510.67
2024-03-26T22:06:00.353Z,47499.48
2024-03-26T22:08:30.055Z,47483.90
2024-03-26T22:11:02.154Z,47514.66
2024-03-26T22:13:31.136Z,47524.65
2024-03-26T22:15:59.168Z,47535.84
2024-03-26T22:18:27.376Z,47539.44
2024-03-26T22:20:56.726Z,47513.07
2024-03-26T22:23:25.085Z,47525.45
2024-03-26T22:26:00.520Z,47493.09
2024-03-26T22:28:28.432Z,47470.71
2024-03-26T22:30:56.422Z,47492.68
2024-03-26T22:33:25.421Z,47489.89
2024-03-26T22:35:53.375Z,47509.47
2024-03-26T22:38:21.435Z,47483.50
2024-03-26T22:40:56.442Z,47515.46
2024-03-26T22:43:25.050Z,47505.87
2024-03-26T22:45:56.821Z,47537.04
2024-03-26T22:48:24.944Z,47602.18
2024-03-26T22:50:53.973Z,47605.38
2024-03-26T22:53:22.038Z,47609.37
2024-03-26T22:56:05.283Z,47622.16
2024-03-26T22:58:34.280Z,47603.77
2024-03-26T23:01:05.637Z,47588.99
2024-03-26T23:03:33.562Z,47559.42
2024-03-26T23:06:02.145Z,47551.82
2024-03-26T23:08:30.642Z,47537.45
2024-03-26T23:10:58.535Z,47548.23
2024-03-26T23:13:27.299Z,47549.83
2024-03-26T23:15:59.908Z,47535.84
2024-03-26T23:18:29.095Z,47548.23
2024-03-26T23:20:57.363Z,47547.83
2024-03-26T23:23:25.306Z,47537.04
2024-03-26T23:25:53.218Z,47539.84
2024-03-26T23:28:21.388Z,47562.61
2024-03-26T23:30:49.353Z,47546.23
2024-03-26T23:33:17.266Z,47557.42
2024-03-26T23:35:48.092Z,47557.02
2024-03-26T23:38:16.583Z,47543.43
2024-03-26T23:40:44.582Z,47555.82
2024-03-26T23:43:13.345Z,47557.82
2024-03-26T23:45:41.253Z,47557.02
2024-03-26T23:48:09.139Z,47563.41
2024-03-26T23:50:37.116Z,47553.02
2024-03-26T23:53:06.078Z,47565.01
2024-03-26T23:55:34.026Z,47573.01
2024-03-26T23:58:02.320Z,47570.61
